Have a Safe July 4th! 

Flight Track Log - Related Links

Times and Time Zones

All times are in EDT time to prevent confusion due to time zone crossing. See the SKW5517 flight status page for this flight to view local times or setup timezone preferences in your user account.

Time Position Orientation Groundspeed Altitude Reporting Facility
EDT Latitude Longitude Course Direction KTS MPH feet Rate Location/Type
Sun 05:35:37 PM 47.9683 -97.1819 227° Southwest 172 198 1,400  Level Minneapolis Center
Sun 05:36:20 PM 48.0061 -97.1853 357° North 191 220 3,300 2,548 Climbing Minneapolis Center
Sun 05:36:50 PM 48.0342 -97.1964 345° North 198 228 4,500 2,571 Climbing Minneapolis Center
Sun 05:37:51 PM 48.0167 -97.2883 254° West 257 296 7,200 3,122 Climbing Minneapolis Center
Sun 05:38:00 PM 47.6432 -97.6098 224° Southwest  Level FlightAware Approximate
Sun 05:38:53 PM 47.9494 -97.3319 203° Southwest 262 302 10,900  Level Minneapolis Center
Sun 05:39:00 PM 47.5682 -97.7170 224° Southwest  Level FlightAware Approximate
Sun 05:39:54 PM 47.8789 -97.3767 203° Southwest 266 306 13,000  Level Minneapolis Center
Sun 05:40:00 PM 47.4951 -97.8270 227° Southwest  Level FlightAware Approximate
Sun 05:40:55 PM 47.8183 -97.4150 203° Southwest 276 318 14,700  Level Minneapolis Center
Sun 05:41:00 PM 47.4236 -97.9391 227° Southwest  Level FlightAware Approximate
Sun 05:41:57 PM 47.7311 -97.4986 213° Southwest 300 345 17,100  Level Minneapolis Center
Sun 05:42:59 PM 47.6692 -97.5933 226° Southwest 312 359 18,500 1,355 Climbing Minneapolis Center
Sun 05:44:01 PM 47.6033 -97.6917 225° Southwest 324 373 19,900 1,317 Climbing Minneapolis Center
Sun 05:45:02 PM 47.5347 -97.7944 225° Southwest 338 389 21,200 1,268 Climbing Minneapolis Center
Sun 05:46:04 PM 47.4628 -97.9050 226° Southwest 346 398 22,500 1,171 Climbing Minneapolis Center
Sun 05:47:05 PM 47.3889 -98.0119 224° Southwest 364 419 23,600 1,171 Climbing Minneapolis Center
Sun 05:48:07 PM 47.3003 -98.1422 225° Southwest 373 429 24,900 1,073 Climbing Minneapolis Center
Sun 05:49:08 PM 47.2261 -98.2506 225° Southwest 376 433 25,800 985 Climbing Minneapolis Center
Sun 05:50:21 PM 47.1508 -98.3606 225° Southwest 380 437 27,100 1,111 Climbing Minneapolis Center
Sun 05:51:23 PM 47.0650 -98.4861 225° Southwest 368 423 28,300 976 Climbing Minneapolis Center
Sun 05:52:24 PM 46.9933 -98.5908 225° Southwest 365 420 29,100 780 Climbing Minneapolis Center
Sun 05:53:26 PM 46.9211 -98.6922 224° Southwest 363 418 29,900 634 Climbing Minneapolis Center
Sun 05:54:27 PM 46.8325 -98.7664 210° Southwest 365 420 30,400 488 Climbing Minneapolis Center
Sun 05:55:29 PM 46.7408 -98.8425 210° Southwest 375 432 30,900 488 Climbing Minneapolis Center
Sun 05:56:30 PM 46.6503 -98.9206 211° Southwest 379 436 31,400 537 Climbing Minneapolis Center
Sun 05:57:32 PM 46.5408 -99.0125 210° Southwest 380 437 32,000 244 Climbing Minneapolis Center
Sun 05:58:33 PM 46.4464 -99.0897 209° Southwest 386 444 31,900  Descending Minneapolis Center
Sun 05:59:34 PM 46.3525 -99.1706 211° Southwest 392 451 32,000  Climbing Minneapolis Center
Sun 06:00:36 PM 46.2564 -99.2492 209° Southwest 396 456 31,900  Descending Minneapolis Center
Sun 06:01:37 PM 46.1653 -99.3239 210° Southwest 397 457 32,000 49 Climbing Minneapolis Center
Sun 06:02:39 PM 46.0489 -99.4192 210° Southwest 400 460 32,000  Level Minneapolis Center
Sun 06:03:40 PM 45.9525 -99.4992 210° Southwest 401 461 32,000  Level Minneapolis Center
Sun 06:04:42 PM 45.8547 -99.5778 209° Southwest 402 463 32,000  Level Minneapolis Center
Sun 06:05:43 PM 45.7567 -99.6575 210° Southwest 404 465 32,000  Level Minneapolis Center
Sun 06:06:45 PM 45.6583 -99.7364 209° Southwest 405 466 32,000  Level Minneapolis Center
Sun 06:07:46 PM 45.5606 -99.8144 209° Southwest 404 465 32,000  Level Minneapolis Center
Sun 06:08:47 PM 45.4639 -99.8917 209° Southwest 401 461 32,000  Level Minneapolis Center
Sun 06:09:49 PM 45.3667 -99.9683 209° Southwest 401 461 32,000  Level Minneapolis Center
Sun 06:10:50 PM 45.2533 -100.0597 210° Southwest 396 456 32,000  Level Minneapolis Center
Sun 06:11:52 PM 45.1589 -100.1336 209° Southwest 395 455 32,000  Level Minneapolis Center
Sun 06:12:53 PM 45.0658 -100.2081 209° Southwest 393 452 32,000  Level Minneapolis Center
Sun 06:13:55 PM 44.9728 -100.2819 209° Southwest 390 449 32,000  Level Minneapolis Center
Sun 06:14:56 PM 44.8792 -100.3550 209° Southwest 388 447 32,000  Level Minneapolis Center
Sun 06:15:58 PM 44.7853 -100.4286 209° Southwest 388 447 32,000  Level Minneapolis Center
Sun 06:16:59 PM 44.6711 -100.5172 209° Southwest 390 449 32,000  Level Minneapolis Center
Sun 06:18:01 PM 44.5769 -100.5908 209° Southwest 389 448 32,000  Level Minneapolis Center
Sun 06:19:03 PM 44.4811 -100.6631 208° Southwest 390 449 32,000  Level Minneapolis Center
Sun 06:20:04 PM 44.3847 -100.7369 209° Southwest 394 453 32,000  Level Minneapolis Center
Sun 06:21:06 PM 44.2889 -100.8092 208° Southwest 393 452 32,000  Level Minneapolis Center
Sun 06:22:07 PM 44.1931 -100.8836 209° Southwest 394 453 32,000  Level Minneapolis Center
Sun 06:23:09 PM 44.0967 -100.9572 209° Southwest 395 455 32,000  Level Minneapolis Center
Sun 06:24:10 PM 43.9994 -101.0300 208° Southwest 395 455 32,000  Level Minneapolis Center
Sun 06:25:12 PM 43.8828 -101.1167 208° Southwest 396 456 32,000  Level Minneapolis Center
Sun 06:26:13 PM 43.7850 -101.1903 209° Southwest 397 457 32,000  Level Minneapolis Center
Sun 06:27:15 PM 43.6883 -101.2625 208° Southwest 397 457 32,000  Level Minneapolis Center
Sun 06:28:26 PM 43.5722 -101.3508 209° Southwest 397 457 32,000  Level Denver Center
Sun 06:29:28 PM 43.4750 -101.4219 208° Southwest 397 457 32,000  Level Denver Center
Sun 06:30:29 PM 43.3775 -101.4933 208° Southwest 397 457 32,000  Level Denver Center
Sun 06:31:31 PM 43.2797 -101.5650 208° Southwest 399 459 32,000  Level Denver Center
Sun 06:32:33 PM 43.1800 -101.6319 206° Southwest 399 459 32,000  Level Denver Center
Sun 06:33:35 PM 43.0792 -101.6981 206° Southwest 402 463 32,000  Level Denver Center
Sun 06:34:37 PM 42.9597 -101.7786 206° Southwest 400 460 32,000  Level Denver Center
Sun 06:35:39 PM 42.8583 -101.8464 206° Southwest 401 461 32,000  Level Denver Center
Sun 06:36:41 PM 42.7633 -101.9092 206° Southwest 398 458 32,000  Level Denver Center
Sun 06:37:43 PM 42.6519 -101.9847 207° Southwest 400 460 32,000  Level Denver Center
Sun 06:38:45 PM 42.5556 -102.0464 205° Southwest 399 459 32,000  Level Denver Center
Sun 06:39:47 PM 42.4428 -102.1203 206° Southwest 401 461 32,000  Level Denver Center
Sun 06:40:49 PM 42.3469 -102.1828 206° Southwest 401 461 32,000  Level Denver Center
Sun 06:41:50 PM 42.2497 -102.2467 206° Southwest 404 465 32,000  Level Denver Center
Sun 06:42:52 PM 42.1375 -102.3206 206° Southwest 401 461 32,000  Level Denver Center
Sun 06:43:54 PM 42.0389 -102.3839 206° Southwest 407 468 32,000  Level Denver Center
Sun 06:44:56 PM 41.9247 -102.4569 205° Southwest 406 467 32,000  Level Denver Center
Sun 06:45:58 PM 41.8258 -102.5200 205° Southwest 408 470 32,000  Level Denver Center
Sun 06:47:00 PM 41.7125 -102.5931 206° Southwest 404 465 32,000  Level Denver Center
Sun 06:48:02 PM 41.6147 -102.6553 205° Southwest 404 465 32,000  Level Denver Center
Sun 06:49:03 PM 41.4958 -102.7297 205° Southwest 418 481 32,000  Level Denver Center
Sun 06:50:05 PM 41.3969 -102.7928 206° Southwest 412 474 32,000  Level Denver Center
Sun 06:51:07 PM 41.2967 -102.8556 205° Southwest 414 476 32,000  Level Denver Center
Sun 06:52:09 PM 41.1919 -102.9219 206° Southwest 413 475 32,000  Level Denver Center
Sun 06:53:11 PM 41.0850 -102.9992 209° Southwest 411 473 32,000  Level Denver Center
Sun 06:54:12 PM 40.9975 -103.1169 225° Southwest 403 464 32,000  Level Denver Center
Sun 06:55:14 PM 40.9225 -103.2244 227° Southwest 397 457 32,000  Level Denver Center
Sun 06:56:16 PM 40.8456 -103.3314 226° Southwest 398 458 32,000 -435 Level Denver Center
Sun 06:57:18 PM 40.7675 -103.4397 226° Southwest 403 464 31,100 -1,016 Descending Denver Center
Sun 06:58:20 PM 40.6906 -103.5472 227° Southwest 398 458 29,900 -1,258 Descending Denver Center
Sun 06:59:22 PM 40.6156 -103.6506 226° Southwest 388 447 28,500 -1,463 Descending Denver Center
Sun 07:00:23 PM 40.5397 -103.7539 226° Southwest 390 449 26,900 -1,805 Descending Denver Center
Sun 07:01:25 PM 40.4658 -103.8564 227° Southwest 383 441 24,800 -1,935 Descending Denver Center
Sun 07:02:27 PM 40.3900 -103.9597 226° Southwest 338 389 22,900 -1,839 Descending Denver Center
Sun 07:03:29 PM 40.3222 -104.0447 224° Southwest 313 360 21,000 -1,839 Descending Denver Center
Sun 07:04:31 PM 40.2575 -104.1144 219° Southwest 301 346 19,100 -1,548 Descending Denver Center
Sun 07:05:33 PM 40.1942 -104.1808 219° Southwest 293 337 17,800 -1,220 Descending Denver Center
Sun 07:06:34 PM 40.1342 -104.2469 220° Southwest 262 302 16,600 -1,317 Descending Denver Center
Sun 07:07:36 PM 40.0786 -104.3064 219° Southwest 260 299 15,100 -1,355 Descending Denver Center
Sun 07:08:38 PM 40.0172 -104.3733 220° Southwest 265 305 13,800 -1,016 Descending Denver Center
Sun 07:09:40 PM 39.9614 -104.4333 219° Southwest 261 300 13,000 -823 Descending Denver Center
Sun 07:10:42 PM 39.9050 -104.4925 219° Southwest 259 298 12,100 -968 Descending Denver Center
Sun 07:11:44 PM 39.8333 -104.5000 185° South 271 312 11,000 -541 Descending Denver TRACON
Sun 07:12:44 PM 39.7667 -104.5000 180° South 224 258 11,000 -579 Level Denver TRACON
Sun 07:13:38 PM 39.7000 -104.5000 180° South 217 250 9,900 -1,053 Descending Denver TRACON
Sun 07:14:38 PM 39.6667 -104.5500 229° Southwest 228 262 9,000 -800 Descending Denver TRACON
Sun 07:15:38 PM 39.6667 -104.6167 270° West 225 259 8,300 -737 Descending Denver TRACON
Sun 07:16:32 PM 39.7167 -104.6500 333° Northwest 206 237 7,600 -778 Descending Denver TRACON

Login

Don't have an account? Register now (free) for customized features, flight alerts, and more!